Time;durP1;ratioP1;P1;durP2;ratioP2;P2;SDS_P1;SDS_P2;PMS_P1;PMS_P2;Temp;Humidity;BMP_temperature;BMP_pressure;BME280_temperature;BME280_humidity;BME280_pressure;Samples;Min_cycle;Max_cycle;Signal;HPM_P1;HPM_P2
2022/10/06 00:00:22;;;;;;;2.97;2.22;;;;;;;;;;4992212;28;20476;-75
2022/10/06 00:02:57;;;;;;;4.82;2.42;;;;;;;;;;4993084;28;20076;-78
2022/10/06 00:05:23;;;;;;;4.78;2.35;;;;;;;;;;4987833;28;20096;-80
2022/10/06 00:07:51;;;;;;;4.57;2.53;;;;;;;;;;5008675;28;20037;-81
2022/10/06 00:10:27;;;;;;;3.30;2.33;;;;;;;;;;4988734;28;20081;-79
2022/10/06 00:12:54;;;;;;;6.30;2.53;;;;;;;;;;5000248;28;20022;-79
2022/10/06 00:15:28;;;;;;;2.78;2.28;;;;;;;;;;4981011;28;20045;-79
2022/10/06 00:18:03;;;;;;;5.95;2.13;;;;;;;;;;4979078;28;20026;-79
2022/10/06 00:23:02;;;;;;;8.05;3.00;;;;;;;;;;4974171;28;20050;-80
2022/10/06 00:25:30;;;;;;;8.73;2.80;;;;;;;;;;4975688;28;20074;-78
2022/10/06 00:27:58;;;;;;;4.00;2.28;;;;;;;;;;4976063;28;20290;-78
2022/10/06 00:30:34;;;;;;;3.50;2.17;;;;;;;;;;4975318;28;20015;-79
2022/10/06 00:33:01;;;;;;;6.05;2.33;;;;;;;;;;4958387;28;20031;-78
2022/10/06 00:35:35;;;;;;;3.85;2.53;;;;;;;;;;4976521;28;20038;-79
2022/10/06 00:38:13;;;;;;;3.33;2.38;;;;;;;;;;4975798;28;20038;-78
2022/10/06 00:40:46;;;;;;;2.92;2.15;;;;;;;;;;4975760;28;20038;-78
2022/10/06 00:43:31;;;;;;;7.72;2.42;;;;;;;;;;4975322;28;20033;-79
2022/10/06 00:46:00;;;;;;;3.63;2.25;;;;;;;;;;4975654;28;20394;-78
2022/10/06 00:48:27;;;;;;;6.07;2.25;;;;;;;;;;4975937;28;20062;-80
2022/10/06 00:50:55;;;;;;;5.88;2.25;;;;;;;;;;4965859;28;20485;-80
2022/10/06 00:53:54;;;;;;;2.70;2.05;;;;;;;;;;4961599;28;20026;-79
2022/10/06 00:56:30;;;;;;;6.68;2.63;;;;;;;;;;4975886;28;20070;-79
2022/10/06 00:58:56;;;;;;;2.67;2.13;;;;;;;;;;4975697;28;20046;-79
2022/10/06 01:01:23;;;;;;;7.38;2.88;;;;;;;;;;4974252;28;20027;-79
2022/10/06 01:03:53;;;;;;;4.53;2.15;;;;;;;;;;4964443;28;20033;-79
2022/10/06 01:06:20;;;;;;;3.03;2.40;;;;;;;;;;4977147;28;20113;-79
2022/10/06 01:08:46;;;;;;;4.28;2.15;;;;;;;;;;4977231;28;20015;-79
2022/10/06 01:11:20;;;;;;;3.45;1.98;;;;;;;;;;4959879;28;20122;-80
2022/10/06 01:13:48;;;;;;;4.90;2.13;;;;;;;;;;4966932;28;20084;-80
2022/10/06 01:16:23;;;;;;;3.90;2.28;;;;;;;;;;4978380;28;20030;-79
2022/10/06 01:18:52;;;;;;;2.67;2.20;;;;;;;;;;4960671;28;20031;-79
2022/10/06 01:21:39;;;;;;;5.28;2.20;;;;;;;;;;4976597;28;20078;-79
2022/10/06 01:24:05;;;;;;;4.75;3.05;;;;;;;;;;4953902;28;20042;-79
2022/10/06 01:26:38;;;;;;;6.28;3.20;;;;;;;;;;4961459;28;20489;-79
2022/10/06 01:29:04;;;;;;;3.00;1.90;;;;;;;;;;4959668;28;20085;-79
2022/10/06 01:31:30;;;;;;;4.00;2.20;;;;;;;;;;5204241;23;20035;-80
2022/10/06 01:33:59;;;;;;;5.60;2.05;;;;;;;;;;4958118;28;20035;-80
2022/10/06 01:36:39;;;;;;;2.95;2.13;;;;;;;;;;4956755;29;20409;-82
2022/10/06 01:39:15;;;;;;;3.30;2.38;;;;;;;;;;4956045;29;20492;-80
2022/10/06 01:41:44;;;;;;;4.30;2.15;;;;;;;;;;4958555;28;20039;-80
2022/10/06 01:44:10;;;;;;;4.47;2.45;;;;;;;;;;4960087;28;20031;-80
2022/10/06 01:46:38;;;;;;;2.90;2.28;;;;;;;;;;4966811;28;20114;-79
2022/10/06 01:49:10;;;;;;;7.18;3.17;;;;;;;;;;4954729;28;20520;-79
2022/10/06 01:51:38;;;;;;;3.13;2.35;;;;;;;;;;4972664;28;20047;-79
2022/10/06 01:54:06;;;;;;;5.47;2.67;;;;;;;;;;4954345;28;20028;-79
2022/10/06 01:56:32;;;;;;;4.45;2.53;;;;;;;;;;4954908;29;20027;-79
2022/10/06 01:58:59;;;;;;;3.55;2.40;;;;;;;;;;4955371;28;20039;-79
2022/10/06 02:01:29;;;;;;;8.07;2.70;;;;;;;;;;4955633;28;20028;-79
2022/10/06 02:04:11;;;;;;;6.07;3.00;;;;;;;;;;4963580;28;20065;-79
2022/10/06 02:06:50;;;;;;;3.75;2.50;;;;;;;;;;4966201;28;20259;-78
2022/10/06 02:09:21;;;;;;;4.60;2.58;;;;;;;;;;4959235;28;20058;-77
2022/10/06 02:12:03;;;;;;;4.88;2.72;;;;;;;;;;4960367;28;20042;-81
2022/10/06 02:14:32;;;;;;;2.75;2.35;;;;;;;;;;4978689;28;20047;-82
2022/10/06 02:17:14;;;;;;;3.33;2.65;;;;;;;;;;4978762;28;20011;-80
2022/10/06 02:20:07;;;;;;;3.95;2.72;;;;;;;;;;4985473;28;20018;-80
2022/10/06 02:22:56;;;;;;;4.78;2.50;;;;;;;;;;4953007;28;20035;-78
2022/10/06 02:25:33;;;;;;;3.80;2.20;;;;;;;;;;4956861;28;20433;-78
2022/10/06 02:28:02;;;;;;;7.07;2.30;;;;;;;;;;4954863;28;20031;-78
2022/10/06 02:30:34;;;;;;;5.93;2.38;;;;;;;;;;4957116;28;20042;-77
2022/10/06 02:33:07;;;;;;;5.25;2.38;;;;;;;;;;4953255;28;20038;-78
2022/10/06 02:35:48;;;;;;;3.72;2.60;;;;;;;;;;4969173;28;20493;-80
2022/10/06 02:38:17;;;;;;;4.53;2.47;;;;;;;;;;4970683;28;20513;-78
2022/10/06 02:41:01;;;;;;;7.47;2.45;;;;;;;;;;4956036;28;20270;-76
2022/10/06 02:43:36;;;;;;;3.42;2.17;;;;;;;;;;4957035;28;20062;-77
2022/10/06 02:46:10;;;;;;;5.22;2.50;;;;;;;;;;4970481;28;20027;-78
2022/10/06 02:48:37;;;;;;;7.43;2.67;;;;;;;;;;4956036;28;20020;-79
2022/10/06 02:51:07;;;;;;;5.20;2.85;;;;;;;;;;4959886;28;20114;-78
2022/10/06 02:53:38;;;;;;;4.70;2.43;;;;;;;;;;4946991;28;20014;-79
2022/10/06 02:56:22;;;;;;;8.18;2.58;;;;;;;;;;4971801;28;20261;-80
2022/10/06 02:59:02;;;;;;;3.05;1.98;;;;;;;;;;4959211;29;20087;-80
2022/10/06 03:01:28;;;;;;;9.43;2.95;;;;;;;;;;4953923;28;20023;-78
2022/10/06 03:03:54;;;;;;;8.23;2.40;;;;;;;;;;4957208;28;20039;-80
2022/10/06 03:06:30;;;;;;;6.70;3.08;;;;;;;;;;4964874;28;20114;-80
2022/10/06 03:09:20;;;;;;;5.45;2.78;;;;;;;;;;4956611;28;20027;-80
2022/10/06 03:11:47;;;;;;;6.97;2.67;;;;;;;;;;4974441;28;20110;-81
2022/10/06 03:14:13;;;;;;;6.45;2.53;;;;;;;;;;4968833;28;20053;-79
2022/10/06 03:19:32;;;;;;;4.25;2.50;;;;;;;;;;4949754;28;20043;-78
2022/10/06 03:22:00;;;;;;;9.63;2.80;;;;;;;;;;4956031;28;20046;-79
2022/10/06 03:24:26;;;;;;;9.05;2.55;;;;;;;;;;4967918;28;20031;-80
2022/10/06 03:26:58;;;;;;;5.35;2.90;;;;;;;;;;4965145;28;20030;-82
2022/10/06 03:29:24;;;;;;;5.65;2.60;;;;;;;;;;4960584;28;20153;-79
2022/10/06 03:31:50;;;;;;;5.38;2.50;;;;;;;;;;4949694;28;20113;-78
2022/10/06 03:34:16;;;;;;;6.32;2.40;;;;;;;;;;4971731;28;20023;-79
2022/10/06 03:36:45;;;;;;;6.00;2.58;;;;;;;;;;4973089;28;20078;-79
2022/10/06 03:39:16;;;;;;;7.75;3.15;;;;;;;;;;4965702;28;20039;-80
2022/10/06 03:41:50;;;;;;;6.90;2.70;;;;;;;;;;4959048;28;20034;-79
2022/10/06 03:44:21;;;;;;;5.85;2.70;;;;;;;;;;4968197;28;20093;-80
2022/10/06 03:46:47;;;;;;;6.82;2.45;;;;;;;;;;4988250;28;20131;-80
2022/10/06 03:49:29;;;;;;;;;;;;;;;;;;;;;
2022/10/06 03:52:11;;;;;;;5.72;3.20;;;;;;;;;;5047973;23;20126;-80
2022/10/06 03:54:55;;;;;;;5.35;2.70;;;;;;;;;;4997073;28;20033;-81
2022/10/06 03:57:30;;;;;;;6.30;2.88;;;;;;;;;;5008696;28;20097;-80
2022/10/06 04:03:11;;;;;;;6.25;3.00;;;;;;;;;;4977081;28;20039;-80
2022/10/06 04:05:37;;;;;;;5.07;2.60;;;;;;;;;;4987769;23;20052;-77
2022/10/06 04:08:03;;;;;;;7.18;2.47;;;;;;;;;;4981101;28;20101;-76
2022/10/06 04:10:29;;;;;;;5.53;2.92;;;;;;;;;;4972773;28;20086;-76
2022/10/06 04:12:55;;;;;;;6.68;3.10;;;;;;;;;;4973681;28;20401;-77
2022/10/06 04:15:21;;;;;;;6.22;3.00;;;;;;;;;;4951209;28;20050;-76
2022/10/06 04:17:47;;;;;;;4.03;2.47;;;;;;;;;;4964876;28;20469;-76
2022/10/06 04:20:14;;;;;;;4.07;2.75;;;;;;;;;;4956849;28;20031;-77
2022/10/06 04:22:40;;;;;;;6.15;2.55;;;;;;;;;;4954303;28;20127;-76
2022/10/06 04:25:06;;;;;;;7.75;3.30;;;;;;;;;;4966273;28;20038;-76
2022/10/06 04:27:32;;;;;;;4.53;2.28;;;;;;;;;;4960644;28;20019;-77
2022/10/06 04:29:58;;;;;;;4.90;2.83;;;;;;;;;;4958526;28;20027;-77
2022/10/06 04:32:24;;;;;;;7.47;2.55;;;;;;;;;;4954743;28;20027;-76
2022/10/06 04:34:50;;;;;;;4.75;3.20;;;;;;;;;;4965164;28;20110;-76
2022/10/06 04:37:16;;;;;;;4.75;2.47;;;;;;;;;;4965083;28;20029;-77
2022/10/06 04:39:42;;;;;;;6.65;2.45;;;;;;;;;;4960313;28;20085;-76
2022/10/06 04:42:08;;;;;;;5.60;2.60;;;;;;;;;;4955213;28;20023;-75
2022/10/06 04:44:34;;;;;;;3.88;2.50;;;;;;;;;;4968506;28;20457;-77
2022/10/06 04:47:03;;;;;;;9.50;2.95;;;;;;;;;;4966514;28;20023;-77
2022/10/06 04:49:28;;;;;;;3.90;2.55;;;;;;;;;;4965705;28;20019;-78
2022/10/06 04:51:54;;;;;;;3.45;2.28;;;;;;;;;;4958252;28;20034;-77
2022/10/06 04:54:20;;;;;;;3.30;1.70;;;;;;;;;;4967101;28;20536;-78
2022/10/06 04:56:46;;;;;;;10.63;2.83;;;;;;;;;;4966164;28;20059;-77
2022/10/06 04:59:13;;;;;;;4.38;2.10;;;;;;;;;;4964175;28;20062;-77
2022/10/06 05:01:39;;;;;;;7.00;2.08;;;;;;;;;;4959243;28;20027;-77
2022/10/06 05:04:05;;;;;;;3.08;2.33;;;;;;;;;;4964114;28;20569;-78
2022/10/06 05:06:35;;;;;;;5.35;2.20;;;;;;;;;;4967779;28;20482;-77
2022/10/06 05:09:03;;;;;;;6.27;2.60;;;;;;;;;;4963644;28;20505;-78
2022/10/06 05:11:30;;;;;;;4.03;2.08;;;;;;;;;;4974796;28;20345;-78
2022/10/06 05:13:57;;;;;;;4.25;2.17;;;;;;;;;;4963983;28;20030;-76
2022/10/06 05:16:24;;;;;;;3.90;2.10;;;;;;;;;;4983036;28;20085;-77
2022/10/06 05:18:50;;;;;;;4.80;2.22;;;;;;;;;;4961139;28;20465;-76
2022/10/06 05:21:18;;;;;;;3.90;1.95;;;;;;;;;;4959136;28;20041;-76
2022/10/06 05:23:44;;;;;;;5.47;1.90;;;;;;;;;;4962200;28;20378;-76
2022/10/06 05:26:12;;;;;;;6.22;1.92;;;;;;;;;;4980019;28;20054;-77
2022/10/06 05:28:43;;;;;;;4.03;2.05;;;;;;;;;;4961995;28;20015;-76
2022/10/06 05:31:11;;;;;;;2.70;2.20;;;;;;;;;;4959843;28;20032;-77
2022/10/06 05:33:46;;;;;;;5.25;2.30;;;;;;;;;;4954437;28;20023;-77
2022/10/06 05:36:17;;;;;;;5.82;1.90;;;;;;;;;;4963944;28;20031;-78
2022/10/06 05:38:44;;;;;;;4.50;2.15;;;;;;;;;;4962181;28;20043;-77
2022/10/06 05:41:11;;;;;;;2.65;1.58;;;;;;;;;;4959905;28;20035;-77
2022/10/06 05:43:38;;;;;;;3.28;2.00;;;;;;;;;;4959581;28;20401;-77
2022/10/06 05:46:16;;;;;;;;;;;;;;;;;;;;;
2022/10/06 05:48:45;;;;;;;2.30;1.38;;;;;;;;;;4961818;28;20019;-76
2022/10/06 05:51:14;;;;;;;2.47;1.70;;;;;;;;;;4959027;28;20082;-76
2022/10/06 05:53:40;;;;;;;2.60;1.60;;;;;;;;;;4959196;28;20069;-78
2022/10/06 05:56:14;;;;;;;1.90;1.70;;;;;;;;;;4969800;28;20121;-77
2022/10/06 05:58:44;;;;;;;2.17;1.45;;;;;;;;;;4961283;28;20098;-78
2022/10/06 06:01:12;;;;;;;2.55;1.98;;;;;;;;;;4958553;28;20126;-77
2022/10/06 06:03:38;;;;;;;3.22;1.67;;;;;;;;;;4960916;28;20023;-77
2022/10/06 06:06:16;;;;;;;5.57;2.35;;;;;;;;;;4970156;28;20448;-78
2022/10/06 06:08:43;;;;;;;3.75;1.88;;;;;;;;;;4956384;28;20020;-77
2022/10/06 06:11:24;;;;;;;5.88;1.90;;;;;;;;;;4960551;28;20434;-78
2022/10/06 06:13:53;;;;;;;3.35;2.00;;;;;;;;;;4963587;28;20031;-78
2022/10/06 06:16:22;;;;;;;4.45;1.88;;;;;;;;;;4967530;28;20023;-78
2022/10/06 06:21:48;;;;;;;2.70;1.90;;;;;;;;;;4956594;28;20027;-78
2022/10/06 06:24:23;;;;;;;8.45;2.47;;;;;;;;;;4965624;28;20109;-78
2022/10/06 06:26:49;;;;;;;6.65;2.35;;;;;;;;;;4959506;28;20034;-78
2022/10/06 06:29:19;;;;;;;4.53;2.58;;;;;;;;;;4962849;28;20119;-79
2022/10/06 06:31:45;;;;;;;6.22;2.85;;;;;;;;;;4955587;28;20050;-76
2022/10/06 06:34:11;;;;;;;4.78;2.08;;;;;;;;;;4964526;28;20039;-75
2022/10/06 06:36:43;;;;;;;5.50;1.73;;;;;;;;;;4965361;28;20037;-76
2022/10/06 06:39:20;;;;;;;2.15;1.55;;;;;;;;;;4963460;28;20027;-76
2022/10/06 06:41:46;;;;;;;3.42;1.60;;;;;;;;;;4974229;28;20042;-77
2022/10/06 06:44:16;;;;;;;5.00;1.60;;;;;;;;;;4976183;28;20026;-76
2022/10/06 06:46:49;;;;;;;4.97;1.13;;;;;;;;;;4981279;28;20021;-78
2022/10/06 06:49:15;;;;;;;4.03;1.00;;;;;;;;;;4957651;28;20051;-78
2022/10/06 06:51:53;;;;;;;1.45;0.60;;;;;;;;;;4958466;28;20016;-79
2022/10/06 06:54:19;;;;;;;3.10;0.80;;;;;;;;;;4964275;28;20039;-79
2022/10/06 06:57:30;;;;;;;2.53;1.02;;;;;;;;;;4979498;28;20047;-79
2022/10/06 07:02:59;;;;;;;4.47;1.00;;;;;;;;;;4924412;29;20104;-79
2022/10/06 07:05:40;;;;;;;2.83;1.25;;;;;;;;;;4957250;28;20062;-79
2022/10/06 07:08:09;;;;;;;4.90;1.15;;;;;;;;;;4965821;28;20023;-80
2022/10/06 07:10:48;;;;;;;1.73;0.90;;;;;;;;;;4960762;28;20027;-78
2022/10/06 07:13:34;;;;;;;4.20;1.13;;;;;;;;;;4960389;28;20024;-79
2022/10/06 08:31:38;;;;;;;3.72;1.00;;;;;;;;;;4874740;29;20074;-82
2022/10/06 08:47:07;;;;;;;4.47;1.00;;;;;;;;;;4864862;29;20076;-77
2022/10/06 08:50:11;;;;;;;4.63;0.95;;;;;;;;;;4899004;29;20024;-78
2022/10/06 09:08:24;;;;;;;;;;;;;;;;;;;;;
2022/10/06 09:28:56;;;;;;;4.70;1.45;;;;;;;;;;4987947;26;20177;-80
2022/10/06 09:41:21;;;;;;;5.13;1.00;;;;;;;;;;4869435;29;20432;-78
2022/10/06 09:44:13;;;;;;;2.90;0.85;;;;;;;;;;4882614;29;20041;-79
2022/10/06 09:47:12;;;;;;;;;;;;;;;;;;;;;
2022/10/06 09:50:14;;;;;;;;;;;;;;;;;;;;;
2022/10/06 09:59:19;;;;;;;4.75;1.17;;;;;;;;;;4938184;29;20592;-79
2022/10/06 10:33:13;;;;;;;5.95;1.23;;;;;;;;;;4849300;29;20117;-79
2022/10/06 10:54:07;;;;;;;8.15;1.65;;;;;;;;;;4756465;23;20043;-79
2022/10/06 10:56:55;;;;;;;4.40;1.17;;;;;;;;;;4967858;28;20039;-80
2022/10/06 10:59:51;;;;;;;;;;;;;;;;;;;;;
2022/10/06 11:05:47;;;;;;;8.75;1.70;;;;;;;;;;4905601;29;20040;-76
2022/10/06 11:12:07;;;;;;;;;;;;;;;;;;;;;
2022/10/06 11:15:45;;;;;;;2.20;0.73;;;;;;;;;;4872726;29;20024;-79
2022/10/06 11:18:01;;;;;;;4.32;1.08;;;;;;;;;;4916785;28;20027;-78
2022/10/06 11:21:09;;;;;;;8.38;1.73;;;;;;;;;;4959312;28;20026;-80
2022/10/06 12:01:47;;;;;;;;;;;;;;;;;;;;;
2022/10/06 12:19:32;;;;;;;5.07;1.10;;;;;;;;;;4868493;29;20143;-79
2022/10/06 13:01:56;;;;;;;;;;;;;;;;;;;;;
2022/10/06 13:26:33;;;;;;;7.03;1.38;;;;;;;;;;4975735;28;20077;-79
2022/10/06 13:32:55;;;;;;;4.38;1.42;;;;;;;;;;4901154;28;20038;-78
2022/10/06 13:42:20;;;;;;;7.03;1.92;;;;;;;;;;4938773;29;20051;-77
2022/10/06 13:52:00;;;;;;;7.00;1.33;;;;;;;;;;4866441;29;20085;-77
2022/10/06 13:58:04;;;;;;;;;;;;;;;;;;;;;
2022/10/06 14:29:47;;;;;;;7.15;1.30;;;;;;;;;;4766606;30;20046;-78
2022/10/06 14:43:48;;;;;;;;;;;;;;;;;;;;;
2022/10/06 14:59:10;;;;;;;7.93;1.70;;;;;;;;;;4930250;29;20084;-79
2022/10/06 15:51:13;;;;;;;4.97;1.60;;;;;;;;;;4981001;28;20094;-78
2022/10/06 15:56:58;;;;;;;8.13;1.90;;;;;;;;;;4916510;29;20059;-76
2022/10/06 16:19:38;;;;;;;;;;;;;;;;;;;;;
2022/10/06 16:32:09;;;;;;;11.93;2.15;;;;;;;;;;5236371;23;20054;-76
2022/10/06 16:44:47;;;;;;;;;;;;;;;;;;;;;
2022/10/06 16:53:17;;;;;;;8.00;2.33;;;;;;;;;;4862001;29;20036;-77
2022/10/06 17:02:19;;;;;;;6.72;2.53;;;;;;;;;;5131383;23;20047;-79
2022/10/06 17:24:06;;;;;;;8.75;3.75;;;;;;;;;;4923023;29;20449;-77
2022/10/06 17:27:14;;;;;;;11.30;3.85;;;;;;;;;;4954814;29;20438;-77
2022/10/06 17:29:49;;;;;;;9.73;4.13;;;;;;;;;;4868988;29;20560;-77
2022/10/06 17:35:20;;;;;;;10.48;3.85;;;;;;;;;;4952321;28;20042;-79
2022/10/06 17:38:29;;;;;;;;;;;;;;;;;;;;;
2022/10/06 17:41:40;;;;;;;17.85;4.70;;;;;;;;;;4950535;28;20047;-78
2022/10/06 17:44:21;;;;;;;10.43;5.05;;;;;;;;;;4895613;29;20115;-78
2022/10/06 17:46:50;;;;;;;15.75;5.47;;;;;;;;;;4896440;29;20051;-78
2022/10/06 17:49:20;;;;;;;13.90;4.95;;;;;;;;;;4893270;29;20423;-79
2022/10/06 17:52:21;;;;;;;14.77;6.47;;;;;;;;;;4994441;23;20432;-79
2022/10/06 17:54:53;;;;;;;12.88;5.47;;;;;;;;;;5003439;28;20023;-78
2022/10/06 17:57:37;;;;;;;;;;;;;;;;;;;;;
2022/10/06 18:02:51;;;;;;;;;;;;;;;;;;;;;
2022/10/06 18:05:53;;;;;;;26.27;10.90;;;;;;;;;;4973836;28;20031;-78
2022/10/06 18:09:00;;;;;;;;;;;;;;;;;;;;;
2022/10/06 18:17:58;;;;;;;22.70;8.15;;;;;;;;;;4896504;29;20463;-78
2022/10/06 18:20:39;;;;;;;43.53;18.02;;;;;;;;;;4897103;29;20123;-78
2022/10/06 18:23:40;;;;;;;;;;;;;;;;;;4897247;29;20044;-78
2022/10/06 18:25:57;;;;;;;;;;;;;;;;;;4952274;28;20343;-77
2022/10/06 18:28:29;;;;;;;18.13;7.97;;;;;;;;;;4974678;28;19906;-78
2022/10/06 18:31:06;;;;;;;19.45;8.38;;;;;;;;;;4975349;28;20038;-79
2022/10/06 18:33:41;;;;;;;22.08;9.88;;;;;;;;;;4944868;28;20031;-78
2022/10/06 18:36:11;;;;;;;16.95;8.73;;;;;;;;;;4944464;28;20504;-79
2022/10/06 18:38:45;;;;;;;21.55;9.32;;;;;;;;;;4976326;28;20019;-78
2022/10/06 18:41:30;;;;;;;18.00;8.18;;;;;;;;;;5038818;23;20150;-78
2022/10/06 18:44:12;;;;;;;19.35;8.00;;;;;;;;;;4979450;28;20066;-79
2022/10/06 18:52:06;;;;;;;21.77;7.88;;;;;;;;;;5064965;23;20050;-80
2022/10/06 18:55:05;;;;;;;;;;;;;;;;;;;;;
2022/10/06 19:01:23;;;;;;;18.90;7.97;;;;;;;;;;4951987;29;20042;-77
2022/10/06 19:21:47;;;;;;;17.23;6.70;;;;;;;;;;4881536;29;20033;-78
2022/10/06 19:24:14;;;;;;;13.80;6.50;;;;;;;;;;4878521;29;20499;-79
2022/10/06 19:26:41;;;;;;;13.52;6.50;;;;;;;;;;4930128;28;20062;-78
2022/10/06 19:29:07;;;;;;;21.65;7.00;;;;;;;;;;4979420;28;20042;-78
2022/10/06 19:31:36;;;;;;;17.15;6.68;;;;;;;;;;4982936;28;20504;-78
2022/10/06 19:34:04;;;;;;;14.25;6.18;;;;;;;;;;4979459;28;20501;-77
2022/10/06 19:36:31;;;;;;;12.30;5.65;;;;;;;;;;4977658;28;20029;-77
2022/10/06 19:38:57;;;;;;;15.10;5.18;;;;;;;;;;4966618;28;20092;-79
2022/10/06 19:53:20;;;;;;;13.20;5.60;;;;;;;;;;4959997;28;20030;-79
2022/10/06 19:56:17;;;;;;;13.57;5.30;;;;;;;;;;4963586;28;20046;-80
2022/10/06 20:02:27;;;;;;;9.98;4.78;;;;;;;;;;4877542;29;20033;-78
2022/10/06 20:05:51;;;;;;;;;;;;;;;;;;;;;
2022/10/06 20:30:50;;;;;;;;;;;;;;;;;;;;;
2022/10/06 20:33:35;;;;;;;11.93;4.82;;;;;;;;;;4974259;28;20485;-77
2022/10/06 20:36:12;;;;;;;10.52;4.93;;;;;;;;;;4965051;28;20031;-79
2022/10/06 20:41:59;;;;;;;;;;;;;;;;;;;;;
2022/10/06 20:44:25;;;;;;;13.20;4.82;;;;;;;;;;4929925;28;20519;-77
2022/10/06 20:46:53;;;;;;;14.27;4.85;;;;;;;;;;4947018;28;20118;-79
2022/10/06 20:49:19;;;;;;;11.13;4.82;;;;;;;;;;4966587;28;20034;-77
2022/10/06 20:51:46;;;;;;;12.35;4.18;;;;;;;;;;4965648;28;20031;-77
2022/10/06 20:54:16;;;;;;;10.82;4.80;;;;;;;;;;4960910;28;20054;-77
2022/10/06 20:56:42;;;;;;;9.20;4.47;;;;;;;;;;4960762;28;20421;-77
2022/10/06 20:59:10;;;;;;;12.70;4.35;;;;;;;;;;4968984;28;20023;-77
2022/10/06 21:01:38;;;;;;;13.35;5.00;;;;;;;;;;4967853;28;20054;-78
2022/10/06 21:04:04;;;;;;;8.02;5.05;;;;;;;;;;4968112;28;20027;-79
2022/10/06 21:06:31;;;;;;;12.52;4.43;;;;;;;;;;4962627;28;20023;-77
2022/10/06 21:08:57;;;;;;;7.00;4.10;;;;;;;;;;4965516;28;20154;-78
2022/10/06 21:11:24;;;;;;;10.02;4.90;;;;;;;;;;4969721;28;20074;-78
2022/10/06 21:13:52;;;;;;;9.93;4.15;;;;;;;;;;4963489;28;20019;-78
2022/10/06 21:16:23;;;;;;;11.02;4.43;;;;;;;;;;4962634;28;20018;-75
2022/10/06 21:18:49;;;;;;;13.82;5.25;;;;;;;;;;4964343;28;20019;-76
2022/10/06 21:21:15;;;;;;;10.07;5.00;;;;;;;;;;4970620;28;20042;-77
2022/10/06 21:23:43;;;;;;;13.35;5.03;;;;;;;;;;4963159;28;20029;-74
2022/10/06 21:26:11;;;;;;;9.98;4.60;;;;;;;;;;4944857;28;20031;-75
2022/10/06 21:28:37;;;;;;;10.68;5.20;;;;;;;;;;4959547;28;20501;-78
2022/10/06 21:31:04;;;;;;;8.43;4.90;;;;;;;;;;4965645;28;20426;-77
2022/10/06 21:33:30;;;;;;;10.18;4.95;;;;;;;;;;4961990;28;20495;-76
2022/10/06 21:35:59;;;;;;;10.63;5.10;;;;;;;;;;4961456;28;20031;-77
2022/10/06 21:38:26;;;;;;;13.70;4.80;;;;;;;;;;4959801;28;20046;-78
2022/10/06 21:40:52;;;;;;;9.40;4.38;;;;;;;;;;4970478;28;20030;-78
2022/10/06 21:43:18;;;;;;;7.75;4.63;;;;;;;;;;4964794;28;20023;-77
2022/10/06 21:45:50;;;;;;;9.88;4.47;;;;;;;;;;4943001;28;20039;-76
2022/10/06 21:48:18;;;;;;;8.77;4.78;;;;;;;;;;4942037;28;20027;-79
2022/10/06 21:50:52;;;;;;;10.13;4.75;;;;;;;;;;4970400;28;20030;-75
2022/10/06 21:53:18;;;;;;;7.15;4.30;;;;;;;;;;4961939;28;20039;-76
2022/10/06 21:55:44;;;;;;;12.38;5.18;;;;;;;;;;4959980;28;20503;-76
2022/10/06 21:58:10;;;;;;;9.32;4.00;;;;;;;;;;4959448;28;20037;-76
2022/10/06 22:00:37;;;;;;;12.00;4.53;;;;;;;;;;4963339;28;20031;-76
2022/10/06 22:03:05;;;;;;;9.80;4.63;;;;;;;;;;4963149;28;20053;-77
2022/10/06 22:05:32;;;;;;;11.98;4.70;;;;;;;;;;4961274;28;20059;-77
2022/10/06 22:07:58;;;;;;;9.85;4.32;;;;;;;;;;4956740;28;20575;-77
2022/10/06 22:10:24;;;;;;;13.00;5.45;;;;;;;;;;4941757;29;20031;-76
2022/10/06 22:12:50;;;;;;;17.67;4.88;;;;;;;;;;4968149;28;20046;-75
2022/10/06 22:15:16;;;;;;;12.88;5.03;;;;;;;;;;4963029;28;20481;-77
2022/10/06 22:17:42;;;;;;;10.35;5.13;;;;;;;;;;4959746;28;20474;-77
2022/10/06 22:20:09;;;;;;;16.80;5.45;;;;;;;;;;4993173;28;20035;-79
2022/10/06 22:22:35;;;;;;;13.18;5.18;;;;;;;;;;4994065;28;20030;-79
2022/10/06 22:25:00;;;;;;;14.88;5.25;;;;;;;;;;4986032;28;20039;-78
2022/10/06 22:27:26;;;;;;;18.90;6.18;;;;;;;;;;4971593;28;20426;-77
2022/10/06 22:29:52;;;;;;;11.02;5.47;;;;;;;;;;4958714;28;20031;-77
2022/10/06 22:32:18;;;;;;;10.30;5.43;;;;;;;;;;4968261;28;20023;-76
2022/10/06 22:34:45;;;;;;;11.15;5.15;;;;;;;;;;4960627;28;20018;-77
2022/10/06 22:37:10;;;;;;;9.57;5.65;;;;;;;;;;4956313;28;20027;-76
2022/10/06 22:39:36;;;;;;;12.43;5.68;;;;;;;;;;4949939;28;20118;-76
2022/10/06 22:42:02;;;;;;;6.50;4.60;;;;;;;;;;4947564;28;20030;-76
2022/10/06 22:44:29;;;;;;;14.35;5.68;;;;;;;;;;4965353;28;20026;-77
2022/10/06 22:46:54;;;;;;;12.85;5.03;;;;;;;;;;4964674;28;20027;-77
2022/10/06 22:49:20;;;;;;;8.38;5.13;;;;;;;;;;4942286;28;20088;-77
2022/10/06 22:51:46;;;;;;;16.05;5.75;;;;;;;;;;4964628;28;20027;-76
2022/10/06 22:54:17;;;;;;;11.93;6.13;;;;;;;;;;4964601;28;20478;-77
2022/10/06 22:56:43;;;;;;;13.40;5.57;;;;;;;;;;4956989;28;20091;-76
2022/10/06 22:59:09;;;;;;;7.78;5.20;;;;;;;;;;4957429;28;20039;-76
2022/10/06 23:01:35;;;;;;;11.30;4.90;;;;;;;;;;4946852;29;20027;-76
2022/10/06 23:04:01;;;;;;;11.10;4.88;;;;;;;;;;4962775;28;20031;-76
2022/10/06 23:06:30;;;;;;;13.90;5.90;;;;;;;;;;4956922;28;20034;-78
2022/10/06 23:08:57;;;;;;;11.20;5.47;;;;;;;;;;4945353;28;20030;-78
2022/10/06 23:11:22;;;;;;;10.25;4.80;;;;;;;;;;4967735;28;20030;-78
2022/10/06 23:13:49;;;;;;;12.88;5.45;;;;;;;;;;4944011;29;20012;-77
2022/10/06 23:16:16;;;;;;;10.40;5.13;;;;;;;;;;4952189;28;20093;-77
2022/10/06 23:18:43;;;;;;;14.05;5.30;;;;;;;;;;4951636;28;20055;-76
2022/10/06 23:21:12;;;;;;;12.82;5.70;;;;;;;;;;4963852;28;20035;-76
2022/10/06 23:23:38;;;;;;;9.18;5.10;;;;;;;;;;4958853;28;20027;-76
2022/10/06 23:26:05;;;;;;;11.43;4.97;;;;;;;;;;4969425;28;20386;-77
2022/10/06 23:28:31;;;;;;;10.10;5.35;;;;;;;;;;4965311;28;20038;-76
2022/10/06 23:30:57;;;;;;;10.23;4.90;;;;;;;;;;4969196;28;20086;-76
2022/10/06 23:33:23;;;;;;;11.93;4.85;;;;;;;;;;4958596;28;20132;-77
2022/10/06 23:35:59;;;;;;;12.60;4.95;;;;;;;;;;4966981;28;20031;-76
2022/10/06 23:38:25;;;;;;;9.30;5.28;;;;;;;;;;4946837;28;20397;-76
2022/10/06 23:40:51;;;;;;;13.20;5.85;;;;;;;;;;4949300;28;20397;-76
2022/10/06 23:43:17;;;;;;;9.88;5.00;;;;;;;;;;4964377;28;20392;-76
2022/10/06 23:45:43;;;;;;;10.07;4.45;;;;;;;;;;4962865;28;20138;-74
2022/10/06 23:48:09;;;;;;;9.90;4.80;;;;;;;;;;4958552;28;20109;-75
2022/10/06 23:50:35;;;;;;;10.90;4.95;;;;;;;;;;4970780;28;20098;-76
2022/10/06 23:53:01;;;;;;;12.07;5.90;;;;;;;;;;4965888;28;20451;-76
2022/10/06 23:55:27;;;;;;;9.90;4.80;;;;;;;;;;4962859;28;20039;-76
2022/10/06 23:57:53;;;;;;;9.55;4.75;;;;;;;;;;4970989;28;20080;-76
